sensor_id;sensor_type;location;lat;lon;timestamp;pressure;altitude;pressure_sealevel;temperature;humidity
77450;BME280;66536;53.150;18.172;2023-04-08T00:02:27;101838.49;;;7.09;87.47
77450;BME280;66536;53.150;18.172;2023-04-08T00:05:12;101842.86;;;7.08;87.44
77450;BME280;66536;53.150;18.172;2023-04-08T00:07:43;101846.23;;;7.05;87.41
77450;BME280;66536;53.150;18.172;2023-04-08T00:10:41;101849.60;;;7.04;87.42
77450;BME280;66536;53.150;18.172;2023-04-08T00:13:39;101850.30;;;7.01;87.32
77450;BME280;66536;53.150;18.172;2023-04-08T00:16:30;101856.04;;;6.97;87.40
77450;BME280;66536;53.150;18.172;2023-04-08T00:28:23;101859.92;;;6.74;87.72
77450;BME280;66536;53.150;18.172;2023-04-08T00:31:32;101860.19;;;6.70;87.75
77450;BME280;66536;53.150;18.172;2023-04-08T00:39:03;101869.18;;;6.57;87.83
77450;BME280;66536;53.150;18.172;2023-04-08T00:56:11;101874.69;;;6.89;85.91
77450;BME280;66536;53.150;18.172;2023-04-08T00:59:28;101881.98;;;6.68;86.20
77450;BME280;66536;53.150;18.172;2023-04-08T01:03:16;101882.08;;;6.43;86.25
77450;BME280;66536;53.150;18.172;2023-04-08T01:38:18;101904.55;;;6.09;85.69
77450;BME280;66536;53.150;18.172;2023-04-08T01:42:18;101909.38;;;5.98;85.90
77450;BME280;66536;53.150;18.172;2023-04-08T01:46:26;101911.39;;;5.79;86.19
77450;BME280;66536;53.150;18.172;2023-04-08T01:50:13;101916.34;;;5.67;86.34
77450;BME280;66536;53.150;18.172;2023-04-08T01:54:46;101917.98;;;5.51;86.43
77450;BME280;66536;53.150;18.172;2023-04-08T01:58:01;101920.66;;;5.43;86.67
77450;BME280;66536;53.150;18.172;2023-04-08T02:01:13;101923.16;;;5.38;86.58
77450;BME280;66536;53.150;18.172;2023-04-08T02:05:06;101925.19;;;5.33;86.84
77450;BME280;66536;53.150;18.172;2023-04-08T02:11:50;101930.84;;;5.26;87.00
77450;BME280;66536;53.150;18.172;2023-04-08T02:14:35;101928.84;;;5.24;87.09
77450;BME280;66536;53.150;18.172;2023-04-08T02:17:15;101931.80;;;5.21;87.14
77450;BME280;66536;53.150;18.172;2023-04-08T02:23:19;101933.58;;;5.05;87.07
77450;BME280;66536;53.150;18.172;2023-04-08T02:26:21;101942.37;;;4.99;87.21
77450;BME280;66536;53.150;18.172;2023-04-08T02:28:56;101946.70;;;4.95;87.41
77450;BME280;66536;53.150;18.172;2023-04-08T02:31:41;101947.19;;;4.91;87.36
77450;BME280;66536;53.150;18.172;2023-04-08T02:34:19;101945.27;;;4.87;87.35
77450;BME280;66536;53.150;18.172;2023-04-08T02:37:06;101945.91;;;4.86;87.55
77450;BME280;66536;53.150;18.172;2023-04-08T02:39:53;101948.27;;;4.85;87.54
77450;BME280;66536;53.150;18.172;2023-04-08T02:43:21;101951.50;;;4.79;87.45
77450;BME280;66536;53.150;18.172;2023-04-08T02:46:22;101956.14;;;4.72;87.47
77450;BME280;66536;53.150;18.172;2023-04-08T02:49:09;101963.96;;;4.66;87.52
77450;BME280;66536;53.150;18.172;2023-04-08T02:56:17;101967.21;;;4.51;87.28
77450;BME280;66536;53.150;18.172;2023-04-08T02:59:50;101969.08;;;4.46;87.32
77450;BME280;66536;53.150;18.172;2023-04-08T03:03:25;101970.73;;;4.37;86.97
77450;BME280;66536;53.150;18.172;2023-04-08T03:06:49;101976.29;;;4.24;86.74
77450;BME280;66536;53.150;18.172;2023-04-08T03:10:42;101977.95;;;4.15;86.98
77450;BME280;66536;53.150;18.172;2023-04-08T03:21:52;101977.48;;;3.89;87.30
77450;BME280;66536;53.150;18.172;2023-04-08T03:25:52;101982.80;;;3.79;87.16
77450;BME280;66536;53.150;18.172;2023-04-08T03:33:59;101984.61;;;3.66;87.31
77450;BME280;66536;53.150;18.172;2023-04-08T03:36:56;101987.34;;;3.64;87.32
77450;BME280;66536;53.150;18.172;2023-04-08T03:55:11;102003.03;;;4.06;85.51
77450;BME280;66536;53.150;18.172;2023-04-08T03:59:09;102007.85;;;3.70;85.69
77450;BME280;66536;53.150;18.172;2023-04-08T04:02:20;102010.14;;;3.51;85.99
77450;BME280;66536;53.150;18.172;2023-04-08T04:05:08;102013.55;;;3.41;86.37
77450;BME280;66536;53.150;18.172;2023-04-08T04:07:57;102018.07;;;3.32;86.41
77450;BME280;66536;53.150;18.172;2023-04-08T04:11:01;102020.83;;;3.19;86.57
77450;BME280;66536;53.150;18.172;2023-04-08T04:14:43;102025.17;;;3.09;86.73
77450;BME280;66536;53.150;18.172;2023-04-08T04:17:46;102027.86;;;3.08;87.13
77450;BME280;66536;53.150;18.172;2023-04-08T04:20:51;102030.94;;;3.10;87.34
77450;BME280;66536;53.150;18.172;2023-04-08T04:23:59;102031.48;;;3.12;87.53
77450;BME280;66536;53.150;18.172;2023-04-08T04:27:17;102035.44;;;3.15;87.38
77450;BME280;66536;53.150;18.172;2023-04-08T04:29:54;102038.41;;;3.19;87.28
77450;BME280;66536;53.150;18.172;2023-04-08T04:32:20;102038.55;;;3.21;87.14
77450;BME280;66536;53.150;18.172;2023-04-08T04:34:46;102044.59;;;3.23;87.30
77450;BME280;66536;53.150;18.172;2023-04-08T04:37:12;102046.98;;;3.27;87.27
77450;BME280;66536;53.150;18.172;2023-04-08T04:39:38;102047.33;;;3.31;86.99
77450;BME280;66536;53.150;18.172;2023-04-08T04:42:04;102049.25;;;3.34;87.08
77450;BME280;66536;53.150;18.172;2023-04-08T04:44:50;102050.89;;;3.35;86.90
77450;BME280;66536;53.150;18.172;2023-04-08T04:47:19;102056.31;;;3.37;87.05
77450;BME280;66536;53.150;18.172;2023-04-08T04:50:26;102052.08;;;3.41;87.02
77450;BME280;66536;53.150;18.172;2023-04-08T04:54:16;102057.08;;;3.51;87.08
77450;BME280;66536;53.150;18.172;2023-04-08T04:57:44;102060.34;;;3.62;87.15
77450;BME280;66536;53.150;18.172;2023-04-08T05:00:57;102064.96;;;3.75;87.12
77450;BME280;66536;53.150;18.172;2023-04-08T05:03:29;102062.34;;;3.85;87.10
77450;BME280;66536;53.150;18.172;2023-04-08T05:06:18;102067.33;;;3.95;86.97
77450;BME280;66536;53.150;18.172;2023-04-08T05:18:14;102078.29;;;4.20;86.60
77450;BME280;66536;53.150;18.172;2023-04-08T05:20:56;102081.70;;;4.24;86.70
77450;BME280;66536;53.150;18.172;2023-04-08T05:23:41;102081.66;;;4.34;86.81
77450;BME280;66536;53.150;18.172;2023-04-08T05:26:40;102086.07;;;4.47;86.65
77450;BME280;66536;53.150;18.172;2023-04-08T05:29:17;102084.41;;;4.58;86.54
77450;BME280;66536;53.150;18.172;2023-04-08T05:31:43;102088.36;;;4.63;86.47
77450;BME280;66536;53.150;18.172;2023-04-08T05:34:10;102093.47;;;4.67;86.57
77450;BME280;66536;53.150;18.172;2023-04-08T05:36:36;102095.52;;;4.71;86.50
77450;BME280;66536;53.150;18.172;2023-04-08T05:39:04;102096.75;;;4.77;86.57
77450;BME280;66536;53.150;18.172;2023-04-08T05:41:30;102095.61;;;4.80;86.26
77450;BME280;66536;53.150;18.172;2023-04-08T05:43:56;102097.98;;;4.84;86.20
77450;BME280;66536;53.150;18.172;2023-04-08T05:46:22;102096.77;;;4.88;86.14
77450;BME280;66536;53.150;18.172;2023-04-08T05:48:48;102097.67;;;4.95;86.16
77450;BME280;66536;53.150;18.172;2023-04-08T05:51:16;102101.30;;;5.02;85.97
77450;BME280;66536;53.150;18.172;2023-04-08T05:53:45;102105.86;;;5.09;85.93
77450;BME280;66536;53.150;18.172;2023-04-08T05:56:11;102110.80;;;5.21;85.83
77450;BME280;66536;53.150;18.172;2023-04-08T05:58:37;102112.36;;;5.26;85.32
77450;BME280;66536;53.150;18.172;2023-04-08T06:01:05;102114.19;;;5.30;85.44
77450;BME280;66536;53.150;18.172;2023-04-08T06:03:50;102118.48;;;5.42;85.68
77450;BME280;66536;53.150;18.172;2023-04-08T06:06:42;102120.11;;;5.54;85.61
77450;BME280;66536;53.150;18.172;2023-04-08T06:09:27;102126.50;;;5.70;85.47
77450;BME280;66536;53.150;18.172;2023-04-08T06:12:19;102129.31;;;5.82;85.28
77450;BME280;66536;53.150;18.172;2023-04-08T06:14:54;102130.15;;;5.92;85.05
77450;BME280;66536;53.150;18.172;2023-04-08T06:17:27;102130.64;;;6.05;84.91
77450;BME280;66536;53.150;18.172;2023-04-08T06:20:03;102132.98;;;6.18;84.46
77450;BME280;66536;53.150;18.172;2023-04-08T06:22:39;102137.67;;;6.27;84.02
77450;BME280;66536;53.150;18.172;2023-04-08T06:25:55;102136.74;;;6.40;84.31
77450;BME280;66536;53.150;18.172;2023-04-08T06:28:41;102139.69;;;6.61;84.10
77450;BME280;66536;53.150;18.172;2023-04-08T06:31:16;102146.31;;;6.76;83.82
77450;BME280;66536;53.150;18.172;2023-04-08T06:34:47;102147.00;;;6.90;83.34
77450;BME280;66536;53.150;18.172;2023-04-08T06:37:51;102146.57;;;6.98;83.11
77450;BME280;66536;53.150;18.172;2023-04-08T06:41:24;102152.66;;;7.14;82.84
77450;BME280;66536;53.150;18.172;2023-04-08T06:49:54;102161.15;;;7.56;82.39
77450;BME280;66536;53.150;18.172;2023-04-08T07:04:57;102165.95;;;8.45;80.06
77450;BME280;66536;53.150;18.172;2023-04-08T07:07:33;102178.05;;;8.59;79.64
77450;BME280;66536;53.150;18.172;2023-04-08T07:10:09;102180.01;;;8.59;79.56
77450;BME280;66536;53.150;18.172;2023-04-08T07:12:49;102186.59;;;8.60;79.57
77450;BME280;66536;53.150;18.172;2023-04-08T07:16:26;102186.64;;;8.66;79.34
77450;BME280;66536;53.150;18.172;2023-04-08T07:19:54;102192.42;;;8.77;79.08
77450;BME280;66536;53.150;18.172;2023-04-08T07:22:41;102190.83;;;8.87;78.67
77450;BME280;66536;53.150;18.172;2023-04-08T07:25:10;102197.40;;;8.98;78.67
77450;BME280;66536;53.150;18.172;2023-04-08T07:28:09;102199.38;;;9.10;78.24
77450;BME280;66536;53.150;18.172;2023-04-08T07:30:38;102196.65;;;9.20;77.63
77450;BME280;66536;53.150;18.172;2023-04-08T07:33:08;102203.45;;;9.23;77.70
77450;BME280;66536;53.150;18.172;2023-04-08T07:36:03;102198.95;;;9.36;77.71
77450;BME280;66536;53.150;18.172;2023-04-08T07:38:38;102200.52;;;9.50;77.34
77450;BME280;66536;53.150;18.172;2023-04-08T07:58:08;102210.34;;;10.87;73.21
77450;BME280;66536;53.150;18.172;2023-04-08T12:10:36;102227.20;;;15.28;49.73
77450;BME280;66536;53.150;18.172;2023-04-08T12:14:45;102226.02;;;15.28;49.97
77450;BME280;66536;53.150;18.172;2023-04-08T12:17:33;102223.02;;;15.40;49.73
77450;BME280;66536;53.150;18.172;2023-04-08T12:20:51;102220.70;;;15.41;49.58
77450;BME280;66536;53.150;18.172;2023-04-08T14:47:38;102158.16;;;16.30;42.17
77450;BME280;66536;53.150;18.172;2023-04-08T14:50:33;102159.10;;;16.29;42.24
77450;BME280;66536;53.150;18.172;2023-04-08T14:54:09;102158.36;;;16.39;42.11
77450;BME280;66536;53.150;18.172;2023-04-08T15:01:21;102149.88;;;16.44;41.49
77450;BME280;66536;53.150;18.172;2023-04-08T15:04:49;102149.08;;;16.48;41.48
77450;BME280;66536;53.150;18.172;2023-04-08T15:07:17;102149.99;;;16.49;41.04
77450;BME280;66536;53.150;18.172;2023-04-08T15:18:17;102142.58;;;17.64;39.53
77450;BME280;66536;53.150;18.172;2023-04-08T15:24:57;102145.56;;;18.26;38.48
77450;BME280;66536;53.150;18.172;2023-04-08T15:32:04;102146.84;;;18.27;37.92
77450;BME280;66536;53.150;18.172;2023-04-08T15:57:30;102150.46;;;20.14;35.62
77450;BME280;66536;53.150;18.172;2023-04-08T16:26:35;102151.06;;;20.15;33.65
77450;BME280;66536;53.150;18.172;2023-04-08T16:30:13;102158.19;;;20.01;33.95
77450;BME280;66536;53.150;18.172;2023-04-08T16:32:52;102154.38;;;19.70;33.74
77450;BME280;66536;53.150;18.172;2023-04-08T16:36:27;102157.70;;;19.00;34.95
77450;BME280;66536;53.150;18.172;2023-04-08T16:40:47;102160.88;;;18.41;36.30
